Ct Longford — 9HYM9 — position and weather

sailwx.info

Track history (hours):
 
Tides and Currents Weather Stations Pressure Air Temp Water Temp Dewpoint Dewpoint Depression Visibility Wind Speed Wind Dir Waves Ship Positions

Ct Longford

Last reported at 2016-Dec-31 19:21 UTC. Time now 2017-Jan-22 01:37 UTC.
Position N 17°13' W 063°25'.
Warning: this ship's position is 21 days out of date.

Length 117 m; draft 7.5 m.

Type: Ship (hazmat cat A). MMSI: 249706000.

Date/timePositionNaut miles runAvg speedWind from/ knotsBaromVisibWave heightAir tempDewpointWater temp
2016-Dec-31 19:21N 17°13' W 063°25'  
2016-Dec-24 17:30N 17°49' W 066°57'1010.3
2016-Dec-24 16:33N 17°49' W 066°47'1010.3
2016-Dec-24 15:33N 17°49' W 066°36'1110.9
2016-Dec-24 14:33N 17°49' W 066°25'1111.0
2016-Dec-24 13:34N 17°48' W 066°13'1110.5
2016-Dec-24 12:33N 17°52' W 066°03'7 0.1
2016-Dec-22 10:26N 17°55' W 065°56'910.8
2016-Dec-22 09:33N 17°51' W 066°05'1110.6
2016-Dec-22 08:34N 17°49' W 066°16'1111.3
2016-Dec-22 07:34N 17°48' W 066°28'1111.2
2016-Dec-22 06:34N 17°48' W 066°39'1111.0
2016-Dec-22 05:33N 17°48' W 066°51'  
Track history (hours):
 
Tides and Currents Weather Stations Pressure Air Temp Water Temp Dewpoint Dewpoint Depression Visibility Wind Speed Wind Dir Waves Ship Positions

Ct Longford

Last reported at 2016-Dec-31 19:21 UTC. Time now 2017-Jan-22 01:37 UTC.
Position N 17°13' W 063°25'.
Warning: this ship's position is 21 days out of date.

Length 117 m; draft 7.5 m.

Type: Ship (hazmat cat A). MMSI: 249706000.

Date/timePositionNaut miles runAvg speedWind from/ knotsBaromVisibWave heightAir tempDewpointWater temp
2016-Dec-31 19:21N 17°13' W 063°25'  
2016-Dec-24 17:30N 17°49' W 066°57'1010.3
2016-Dec-24 16:33N 17°49' W 066°47'1010.3
2016-Dec-24 15:33N 17°49' W 066°36'1110.9
2016-Dec-24 14:33N 17°49' W 066°25'1111.0
2016-Dec-24 13:34N 17°48' W 066°13'1110.5
2016-Dec-24 12:33N 17°52' W 066°03'7 0.1
2016-Dec-22 10:26N 17°55' W 065°56'910.8
2016-Dec-22 09:33N 17°51' W 066°05'1110.6
2016-Dec-22 08:34N 17°49' W 066°16'1111.3
2016-Dec-22 07:34N 17°48' W 066°28'1111.2
2016-Dec-22 06:34N 17°48' W 066°39'1111.0
2016-Dec-22 05:33N 17°48' W 066°51'  

Dump ship's entire track history